Current Weather

Kalamazoo/Battle Creek Intl

Kalamazoo, Michigan (KAZO)

Report from: Friday, April 19, 2024 5:53 AM EDT
Current time: Friday, April 19, 2024 6:41 AM EDT

Nearby weather – Weather history – Daily summaries
Weather forecast

Present weatherLight rain, mist
Temperature7.8°C (46.0°F)
Wind chill4.2°C (39.6°F)
Dew point6.1°C (43.0°F)
Winds 13 kts (6.7 m/s, 15 mph) North-Northwest (330°)
Visibility5 mi. (8 km)
Clouds Ceiling: Broken clouds 800 ft. (244 m)
Overcast 1,200 ft. (366 m)
Altimeter29.95 in.Hg (1014 mB)
Precipitiation0.01 in. (0 mm)
Relative humidity89 %
Density altitude-771 ft. (-235 m)
Sea-level pressure101.5 kPa (1015 mB, 29.96 in.Hg)
Remarks Automated weather observing station with precipitation discriminator
Flight conditions Instrument Meteorological Conditions
Raw dataKAZO 190953Z 33013KT 5SM -RA BR BKN008 OVC012 08/06 A2995 RMK AO2 SLP145 P0001 T00780061
An error has occurred. This application may no longer respond until reloaded. Reload 🗙